createdAt,value
2023-04-19T00:01:30.418Z,8.90
2023-04-19T00:03:58.474Z,8.80
2023-04-19T00:06:26.183Z,8.80
2023-04-19T00:08:53.209Z,8.80
2023-04-19T00:11:20.267Z,8.80
2023-04-19T00:13:47.332Z,8.70
2023-04-19T00:16:14.364Z,8.70
2023-04-19T00:18:41.916Z,8.70
2023-04-19T00:21:08.828Z,8.70
2023-04-19T00:23:35.882Z,8.70
2023-04-19T00:26:03.682Z,8.70
2023-04-19T00:28:31.048Z,8.60
2023-04-19T00:30:58.140Z,8.60
2023-04-19T00:33:25.195Z,8.60
2023-04-19T00:35:52.096Z,8.60
2023-04-19T00:38:20.093Z,8.60
2023-04-19T00:40:47.552Z,8.60
2023-04-19T00:43:18.730Z,8.50
2023-04-19T00:45:46.055Z,8.60
2023-04-19T00:48:13.916Z,8.50
2023-04-19T00:50:41.071Z,8.50
2023-04-19T00:53:07.974Z,8.50
2023-04-19T00:55:34.961Z,8.60
2023-04-19T00:58:03.567Z,8.60
2023-04-19T01:00:33.860Z,8.60
2023-04-19T01:03:01.269Z,8.60
2023-04-19T01:05:28.283Z,8.60
2023-04-19T01:07:58.233Z,8.70
2023-04-19T01:10:25.354Z,8.70
2023-04-19T01:12:55.127Z,8.70
2023-04-19T01:15:24.705Z,8.70
2023-04-19T01:17:52.095Z,8.70
2023-04-19T01:20:19.136Z,8.80
2023-04-19T01:22:46.357Z,8.80
2023-04-19T01:25:13.344Z,8.80
2023-04-19T01:27:43.030Z,8.80
2023-04-19T01:30:10.144Z,8.80
2023-04-19T01:32:37.106Z,8.80
2023-04-19T01:35:04.214Z,8.80
2023-04-19T01:37:31.143Z,8.80
2023-04-19T01:39:58.076Z,8.80
2023-04-19T01:42:25.095Z,8.90
2023-04-19T01:44:52.639Z,8.80
2023-04-19T01:47:19.860Z,8.80
2023-04-19T01:49:46.881Z,8.90
2023-04-19T01:52:15.931Z,8.80
2023-04-19T01:54:42.879Z,9.10
2023-04-19T01:57:09.792Z,9.00
2023-04-19T01:59:36.785Z,8.90
2023-04-19T02:02:06.584Z,8.90
2023-04-19T02:04:34.378Z,8.90
2023-04-19T02:07:01.305Z,8.80
2023-04-19T02:09:29.406Z,8.90
2023-04-19T02:11:56.280Z,8.90
2023-04-19T02:14:23.275Z,8.90
2023-04-19T02:16:50.269Z,8.90
2023-04-19T02:19:18.089Z,8.90
2023-04-19T02:21:45.049Z,8.90
2023-04-19T02:24:14.653Z,8.90
2023-04-19T02:26:42.475Z,8.90
2023-04-19T02:29:09.982Z,9.00
2023-04-19T02:31:38.681Z,8.90
2023-04-19T02:34:09.278Z,8.90
2023-04-19T02:36:36.253Z,8.90
2023-04-19T02:39:03.171Z,8.90
2023-04-19T02:41:30.092Z,8.90
2023-04-19T02:43:56.957Z,8.90
2023-04-19T02:46:23.888Z,8.90
2023-04-19T02:48:50.945Z,8.90
2023-04-19T02:51:18.210Z,8.90
2023-04-19T02:53:45.204Z,8.90
2023-04-19T02:56:12.128Z,8.90
2023-04-19T02:58:39.066Z,8.90
2023-04-19T03:01:07.199Z,8.90
2023-04-19T03:03:34.565Z,8.90
2023-04-19T03:06:02.017Z,8.90
2023-04-19T03:08:30.606Z,8.90
2023-04-19T03:10:57.487Z,8.90
2023-04-19T03:13:24.448Z,8.90
2023-04-19T03:15:51.345Z,8.90
2023-04-19T03:18:21.975Z,9.00
2023-04-19T03:20:48.931Z,8.90
2023-04-19T03:23:16.640Z,9.00
2023-04-19T03:25:44.669Z,9.10
2023-04-19T03:28:32.310Z,9.00
2023-04-19T03:31:15.877Z,9.00
2023-04-19T03:33:43.600Z,9.00
2023-04-19T03:36:12.593Z,9.00
2023-04-19T03:38:43.637Z,9.00
2023-04-19T03:41:26.281Z,9.00
2023-04-19T03:44:11.749Z,9.00
2023-04-19T03:46:42.602Z,9.00
2023-04-19T03:49:10.274Z,9.00
2023-04-19T03:51:39.117Z,9.00
2023-04-19T03:54:07.562Z,9.00
2023-04-19T03:56:34.674Z,9.10
2023-04-19T03:59:01.945Z,9.10
2023-04-19T04:01:30.797Z,9.00
2023-04-19T04:03:57.916Z,9.10
2023-04-19T04:06:26.838Z,9.10
2023-04-19T04:08:53.846Z,9.10
2023-04-19T04:11:20.879Z,9.10
2023-04-19T04:13:50.466Z,9.10
2023-04-19T04:16:21.768Z,9.10
2023-04-19T04:18:50.770Z,9.10
2023-04-19T04:21:17.868Z,9.10
2023-04-19T04:23:47.500Z,9.10
2023-04-19T04:26:25.293Z,9.10
2023-04-19T04:29:15.917Z,9.10
2023-04-19T04:31:43.231Z,9.10
2023-04-19T04:34:10.879Z,9.10
2023-04-19T04:36:47.526Z,9.10
2023-04-19T04:39:14.498Z,9.10
2023-04-19T04:41:43.667Z,9.10
2023-04-19T04:44:13.003Z,9.10
2023-04-19T04:46:42.279Z,9.10
2023-04-19T04:49:12.449Z,9.10
2023-04-19T04:51:41.809Z,9.10
2023-04-19T04:54:09.739Z,9.10
2023-04-19T04:56:37.020Z,9.20
2023-04-19T04:59:04.592Z,9.20
2023-04-19T05:01:35.925Z,9.20
2023-04-19T05:04:03.213Z,9.20
2023-04-19T05:06:31.109Z,9.20
2023-04-19T05:08:58.102Z,9.20
2023-04-19T05:11:33.316Z,9.20
2023-04-19T05:14:00.980Z,9.20
2023-04-19T05:16:28.103Z,9.20
2023-04-19T05:18:55.952Z,9.20
2023-04-19T05:21:24.015Z,9.20
2023-04-19T05:23:53.656Z,9.20
2023-04-19T05:26:21.614Z,9.20
2023-04-19T05:28:50.368Z,9.30
2023-04-19T05:31:27.878Z,9.30
2023-04-19T05:34:16.309Z,9.20
2023-04-19T05:36:43.842Z,9.20
2023-04-19T05:39:13.894Z,9.20
2023-04-19T05:41:41.151Z,9.30
2023-04-19T05:44:08.116Z,9.30
2023-04-19T05:46:35.112Z,9.30
2023-04-19T05:49:02.965Z,9.30
2023-04-19T05:51:44.668Z,9.30
2023-04-19T05:54:28.595Z,9.30
2023-04-19T05:56:56.373Z,9.30
2023-04-19T05:59:23.458Z,9.20
2023-04-19T06:01:50.505Z,9.30
2023-04-19T06:04:17.819Z,9.30
2023-04-19T06:06:45.514Z,9.20
2023-04-19T06:09:15.233Z,9.20
2023-04-19T06:11:50.159Z,9.30
2023-04-19T06:14:18.561Z,9.30
2023-04-19T06:16:45.815Z,9.30
2023-04-19T06:19:12.676Z,9.30
2023-04-19T06:21:39.766Z,9.30
2023-04-19T06:24:09.847Z,9.30
2023-04-19T06:26:36.804Z,9.30
2023-04-19T06:29:03.776Z,9.30
2023-04-19T06:31:31.005Z,9.30
2023-04-19T06:33:57.907Z,9.30
2023-04-19T06:36:24.902Z,9.30
2023-04-19T06:38:51.832Z,9.30
2023-04-19T06:41:18.775Z,9.30
2023-04-19T06:43:45.833Z,9.40
2023-04-19T06:46:14.517Z,9.30
2023-04-19T06:48:41.976Z,9.40
2023-04-19T06:51:09.500Z,9.40
2023-04-19T06:53:36.989Z,9.40
2023-04-19T06:56:04.587Z,9.40
2023-04-19T06:58:35.366Z,9.40
2023-04-19T07:01:06.377Z,9.50
2023-04-19T07:03:33.821Z,9.40
2023-04-19T07:06:01.099Z,9.50
2023-04-19T07:08:42.484Z,9.40
2023-04-19T07:11:15.472Z,9.50
2023-04-19T07:13:42.464Z,9.50
2023-04-19T07:16:09.430Z,9.50
2023-04-19T07:18:36.462Z,9.50
2023-04-19T07:21:03.444Z,9.50
2023-04-19T07:23:31.005Z,9.50
2023-04-19T07:25:58.052Z,9.50
2023-04-19T07:28:25.019Z,9.50
2023-04-19T07:30:51.860Z,9.50
2023-04-19T07:33:18.801Z,9.50
2023-04-19T07:35:46.183Z,9.50
2023-04-19T07:38:13.136Z,9.50
2023-04-19T07:40:40.007Z,9.60
2023-04-19T07:43:07.148Z,9.50
2023-04-19T07:45:34.093Z,9.60
2023-04-19T07:48:01.039Z,9.60
2023-04-19T07:50:28.713Z,9.60
2023-04-19T07:52:56.725Z,9.60
2023-04-19T07:55:23.704Z,9.60
2023-04-19T07:57:50.754Z,9.60
2023-04-19T08:00:18.517Z,9.60
2023-04-19T08:02:46.490Z,9.70
2023-04-19T08:05:14.644Z,9.70
2023-04-19T08:07:41.720Z,9.70
2023-04-19T08:10:09.073Z,9.70
2023-04-19T08:12:42.667Z,9.90
2023-04-19T08:15:29.566Z,9.70
2023-04-19T08:17:59.137Z,9.80
2023-04-19T08:20:26.962Z,9.80
2023-04-19T08:22:54.375Z,9.80
2023-04-19T08:25:21.421Z,9.80
2023-04-19T08:27:48.284Z,9.90
2023-04-19T08:30:15.939Z,9.90
2023-04-19T08:32:42.917Z,10.00
2023-04-19T08:35:11.300Z,10.00
2023-04-19T08:37:38.227Z,10.00
2023-04-19T08:40:05.728Z,10.00
2023-04-19T08:42:36.787Z,10.10
2023-04-19T08:47:56.428Z,10.10
2023-04-19T08:50:34.354Z,10.20
2023-04-19T08:53:20.995Z,10.20
2023-04-19T08:56:08.501Z,10.20
2023-04-19T08:58:54.779Z,10.20
2023-04-19T09:04:09.629Z,10.20
2023-04-19T09:06:42.599Z,10.20
2023-04-19T09:09:35.452Z,10.20
2023-04-19T09:12:05.342Z,10.30
2023-04-19T09:14:32.343Z,10.30
2023-04-19T09:17:12.597Z,10.30
2023-04-19T09:19:46.737Z,10.30
2023-04-19T09:22:13.918Z,10.30
2023-04-19T09:27:12.500Z,10.40
2023-04-19T09:29:39.767Z,10.40
2023-04-19T09:32:06.794Z,10.50
2023-04-19T09:34:33.781Z,10.50
2023-04-19T09:37:21.502Z,10.60
2023-04-19T09:39:59.834Z,10.60
2023-04-19T09:47:46.397Z,10.90
2023-04-19T09:50:21.988Z,11.00
2023-04-19T09:52:52.411Z,11.00
2023-04-19T09:57:49.546Z,11.10
2023-04-19T10:00:16.719Z,11.20
2023-04-19T10:02:45.197Z,11.30
2023-04-19T10:05:20.322Z,11.40
2023-04-19T10:07:53.263Z,11.40
2023-04-19T10:10:32.920Z,11.50
2023-04-19T10:13:18.809Z,11.50
2023-04-19T10:15:52.560Z,11.60
2023-04-19T10:18:22.835Z,11.50
2023-04-19T10:20:49.824Z,11.50
2023-04-19T10:23:17.142Z,11.50
2023-04-19T10:25:46.744Z,11.50
2023-04-19T10:28:14.133Z,11.60
2023-04-19T10:30:55.027Z,11.60
2023-04-19T10:33:26.431Z,11.60
2023-04-19T10:35:56.033Z,11.70
2023-04-19T10:38:35.479Z,11.60
2023-04-19T10:41:03.934Z,11.60
2023-04-19T10:43:30.848Z,11.60
2023-04-19T10:46:02.252Z,11.70
2023-04-19T10:48:49.369Z,11.70
2023-04-19T10:51:17.131Z,11.80
2023-04-19T10:53:44.116Z,11.90
2023-04-19T10:56:11.238Z,12.00
2023-04-19T10:58:56.836Z,12.00
2023-04-19T11:01:38.246Z,12.10
2023-04-19T11:04:06.178Z,12.10
2023-04-19T11:06:33.734Z,12.10
2023-04-19T11:09:01.173Z,12.20
2023-04-19T11:11:28.433Z,12.10
2023-04-19T11:13:56.381Z,12.20
2023-04-19T11:16:31.263Z,12.20
2023-04-19T11:19:09.135Z,12.30
2023-04-19T11:21:40.239Z,12.30
2023-04-19T11:24:10.937Z,12.40
2023-04-19T11:26:37.970Z,12.40
2023-04-19T11:29:06.360Z,12.50
2023-04-19T11:31:33.691Z,12.60
2023-04-19T11:34:01.128Z,12.70
2023-04-19T11:36:28.406Z,12.70
2023-04-19T11:38:55.282Z,12.90
2023-04-19T11:41:22.444Z,13.00
2023-04-19T11:43:49.458Z,13.10
2023-04-19T11:46:16.717Z,13.10
2023-04-19T11:48:53.592Z,13.30
2023-04-19T11:51:20.816Z,13.40
2023-04-19T11:53:47.888Z,13.70
2023-04-19T11:56:16.388Z,14.00
2023-04-19T11:58:50.859Z,14.20
2023-04-19T12:01:22.047Z,14.40
2023-04-19T12:03:53.239Z,14.60
2023-04-19T12:06:31.963Z,14.70
2023-04-19T12:08:59.037Z,14.80
2023-04-19T12:11:27.407Z,14.80
2023-04-19T12:14:10.632Z,14.80
2023-04-19T12:16:37.746Z,14.70
2023-04-19T12:19:15.301Z,14.70
2023-04-19T12:21:42.677Z,14.60
2023-04-19T12:24:09.638Z,14.60
2023-04-19T12:26:36.983Z,14.50
2023-04-19T12:29:04.026Z,14.40
2023-04-19T12:31:32.504Z,14.30
2023-04-19T12:34:02.318Z,14.30
2023-04-19T12:36:30.481Z,14.20
2023-04-19T12:38:57.499Z,14.20
2023-04-19T12:41:24.636Z,14.20
2023-04-19T12:43:51.528Z,14.30
2023-04-19T12:46:18.626Z,14.40
2023-04-19T12:48:45.573Z,14.60
2023-04-19T12:51:12.473Z,14.70
2023-04-19T12:53:39.476Z,14.70
2023-04-19T12:56:07.645Z,14.80
2023-04-19T12:58:34.605Z,15.00
2023-04-19T13:01:01.610Z,15.30
2023-04-19T13:03:33.180Z,15.70
2023-04-19T13:06:01.007Z,16.00
2023-04-19T13:08:43.415Z,16.40
2023-04-19T13:11:12.786Z,16.80
2023-04-19T13:13:41.156Z,17.20
2023-04-19T13:16:08.263Z,17.40
2023-04-19T13:18:35.293Z,17.60
2023-04-19T13:21:02.212Z,17.80
2023-04-19T13:23:29.216Z,18.00
2023-04-19T13:25:56.157Z,18.10
2023-04-19T13:28:23.177Z,18.10
2023-04-19T13:30:50.291Z,18.10
2023-04-19T13:33:17.336Z,18.10
2023-04-19T13:35:45.120Z,18.10
2023-04-19T13:38:12.097Z,18.00
2023-04-19T13:40:39.027Z,18.00
2023-04-19T13:43:05.925Z,17.90
2023-04-19T13:45:32.897Z,17.90
2023-04-19T13:47:59.888Z,17.80
2023-04-19T13:50:26.845Z,17.70
2023-04-19T13:52:53.845Z,17.50
2023-04-19T13:55:20.827Z,17.50
2023-04-19T13:57:47.831Z,17.50
2023-04-19T14:00:15.092Z,17.40
2023-04-19T14:05:09.390Z,17.30
2023-04-19T14:07:36.259Z,17.20
2023-04-19T14:10:03.307Z,17.20
2023-04-19T14:12:30.684Z,17.00
2023-04-19T14:14:57.652Z,16.90
2023-04-19T14:17:24.604Z,16.80
2023-04-19T14:19:51.578Z,16.70
2023-04-19T14:22:18.741Z,16.70
2023-04-19T14:24:46.409Z,16.70
2023-04-19T14:27:13.362Z,16.60
2023-04-19T14:29:40.330Z,16.60
2023-04-19T14:32:21.369Z,16.50
2023-04-19T14:34:51.933Z,16.50
2023-04-19T14:37:19.145Z,16.40
2023-04-19T14:39:46.661Z,16.40
2023-04-19T14:42:13.894Z,16.40
2023-04-19T14:44:41.166Z,16.30
2023-04-19T14:47:08.247Z,16.30
2023-04-19T14:49:35.245Z,16.20
2023-04-19T14:52:03.926Z,16.20
2023-04-19T14:54:30.981Z,16.20
2023-04-19T14:56:57.839Z,16.00
2023-04-19T14:59:24.806Z,16.00
2023-04-19T15:01:51.949Z,15.90
2023-04-19T15:04:19.169Z,15.70
2023-04-19T15:06:46.452Z,15.60
2023-04-19T15:09:13.893Z,15.50
2023-04-19T15:11:41.347Z,15.40
2023-04-19T15:14:08.240Z,15.20
2023-04-19T15:16:35.319Z,15.20
2023-04-19T15:19:02.504Z,15.00
2023-04-19T15:21:29.637Z,14.90
2023-04-19T15:23:56.602Z,14.70
2023-04-19T15:26:24.428Z,14.60
2023-04-19T15:28:51.653Z,14.50
2023-04-19T15:31:18.734Z,14.40
2023-04-19T15:33:46.881Z,14.20
2023-04-19T15:36:13.944Z,14.10
2023-04-19T15:38:42.649Z,14.00
2023-04-19T15:41:11.102Z,13.90
2023-04-19T15:43:37.958Z,13.80
2023-04-19T15:46:05.159Z,13.70
2023-04-19T15:48:32.146Z,13.60
2023-04-19T15:50:59.255Z,13.50
2023-04-19T15:53:26.162Z,13.40
2023-04-19T15:55:54.829Z,13.30
2023-04-19T15:58:24.009Z,13.20
2023-04-19T16:00:51.254Z,13.20
2023-04-19T16:03:18.590Z,13.10
2023-04-19T16:05:45.592Z,13.10
2023-04-19T16:08:17.380Z,13.00
2023-04-19T16:10:45.335Z,12.90
2023-04-19T16:13:15.473Z,12.80
2023-04-19T16:15:43.066Z,12.80
2023-04-19T16:18:10.125Z,12.70
2023-04-19T16:20:37.450Z,12.60
2023-04-19T16:23:04.509Z,12.60
2023-04-19T16:25:31.777Z,12.50
2023-04-19T16:27:59.080Z,12.50
2023-04-19T16:30:26.952Z,12.40
2023-04-19T16:32:57.059Z,12.40
2023-04-19T16:35:24.530Z,12.30
2023-04-19T16:37:53.250Z,12.30
2023-04-19T16:40:22.291Z,12.40
2023-04-19T16:42:49.349Z,12.30
2023-04-19T16:45:17.518Z,12.30
2023-04-19T16:47:46.198Z,12.30
2023-04-19T16:50:14.249Z,12.30
2023-04-19T16:52:41.742Z,12.30
2023-04-19T16:55:08.837Z,12.30
2023-04-19T16:57:36.800Z,12.20
2023-04-19T17:00:05.981Z,12.20
2023-04-19T17:02:33.800Z,12.10
2023-04-19T17:05:01.307Z,12.00
2023-04-19T17:07:28.512Z,12.00
2023-04-19T17:09:56.418Z,11.90
2023-04-19T17:12:23.636Z,11.90
2023-04-19T17:14:50.650Z,11.80
2023-04-19T17:17:20.108Z,11.80
2023-04-19T17:19:47.283Z,11.80
2023-04-19T17:22:14.758Z,11.70
2023-04-19T17:24:42.249Z,11.80
2023-04-19T17:27:09.561Z,11.80
2023-04-19T17:29:36.896Z,11.70
2023-04-19T17:32:03.987Z,11.70
2023-04-19T17:34:31.004Z,11.70
2023-04-19T17:36:57.969Z,11.60
2023-04-19T17:39:27.788Z,11.60
2023-04-19T17:41:55.962Z,11.50
2023-04-19T17:44:23.197Z,11.50
2023-04-19T17:46:50.187Z,11.50
2023-04-19T17:49:19.125Z,11.50
2023-04-19T17:51:46.612Z,11.40
2023-04-19T17:54:13.723Z,11.40
2023-04-19T17:56:40.993Z,11.40
2023-04-19T17:59:08.531Z,11.30
2023-04-19T18:01:35.681Z,11.30
2023-04-19T18:04:03.477Z,11.30
2023-04-19T18:06:31.857Z,11.30
2023-04-19T18:08:58.907Z,11.30
2023-04-19T18:11:28.329Z,11.30
2023-04-19T18:13:55.753Z,11.30
2023-04-19T18:16:22.823Z,11.20
2023-04-19T18:18:49.786Z,11.20
2023-04-19T18:21:18.519Z,11.20
2023-04-19T18:23:45.654Z,11.10
2023-04-19T18:26:12.613Z,11.10
2023-04-19T18:28:39.768Z,11.00
2023-04-19T18:31:07.566Z,11.00
2023-04-19T18:33:34.641Z,11.00
2023-04-19T18:36:01.553Z,10.90
2023-04-19T18:38:28.502Z,10.90
2023-04-19T18:40:55.459Z,10.80
2023-04-19T18:43:24.572Z,10.80
2023-04-19T18:45:55.445Z,10.80
2023-04-19T18:48:23.161Z,10.80
2023-04-19T18:50:50.186Z,10.80
2023-04-19T18:53:17.203Z,10.80
2023-04-19T18:55:44.153Z,10.80
2023-04-19T18:58:12.111Z,10.80
2023-04-19T19:00:39.082Z,10.70
2023-04-19T19:03:12.052Z,10.70
2023-04-19T19:05:51.518Z,10.70
2023-04-19T19:08:19.119Z,10.60
2023-04-19T19:13:16.132Z,10.60
2023-04-19T19:15:43.800Z,10.60
2023-04-19T19:18:10.845Z,10.50
2023-04-19T19:20:37.756Z,10.50
2023-04-19T19:23:04.643Z,10.50
2023-04-19T19:25:31.983Z,10.40
2023-04-19T19:28:07.395Z,10.40
2023-04-19T19:30:39.846Z,10.40
2023-04-19T19:33:07.205Z,10.30
2023-04-19T19:35:34.168Z,10.30
2023-04-19T19:38:01.175Z,10.30
2023-04-19T19:40:31.132Z,10.20
2023-04-19T19:42:59.818Z,10.20
2023-04-19T19:45:27.439Z,10.20
2023-04-19T19:47:54.791Z,10.20
2023-04-19T19:52:52.626Z,10.10
2023-04-19T19:55:19.565Z,10.10
2023-04-19T20:00:39.890Z,10.00
2023-04-19T20:03:06.237Z,10.00
2023-04-19T20:05:34.172Z,9.90
2023-04-19T20:08:06.203Z,9.90
2023-04-19T20:10:34.425Z,9.90
2023-04-19T20:13:01.675Z,9.90
2023-04-19T20:15:29.967Z,9.80
2023-04-19T20:17:56.955Z,9.80
2023-04-19T20:20:24.082Z,9.70
2023-04-19T20:22:51.079Z,9.70
2023-04-19T20:25:18.150Z,9.70
2023-04-19T20:27:45.148Z,9.70
2023-04-19T20:30:12.610Z,9.70
2023-04-19T20:32:42.637Z,9.70
2023-04-19T20:35:12.478Z,9.60
2023-04-19T20:37:40.185Z,9.60
2023-04-19T20:40:11.113Z,9.60
2023-04-19T20:42:38.324Z,9.50
2023-04-19T20:45:06.128Z,9.50
2023-04-19T20:47:33.744Z,9.50
2023-04-19T20:50:00.926Z,9.50
2023-04-19T20:52:27.911Z,9.40
2023-04-19T20:54:56.977Z,9.40
2023-04-19T20:57:23.824Z,9.40
2023-04-19T20:59:51.039Z,9.40
2023-04-19T21:02:18.134Z,9.40
2023-04-19T21:04:45.304Z,9.40
2023-04-19T21:07:12.291Z,9.30
2023-04-19T21:09:39.146Z,9.30
2023-04-19T21:12:06.196Z,9.30
2023-04-19T21:14:34.140Z,9.20
2023-04-19T21:17:04.228Z,9.20
2023-04-19T21:19:31.297Z,9.20
2023-04-19T21:21:58.568Z,9.10
2023-04-19T21:24:25.479Z,9.10
2023-04-19T21:26:52.455Z,9.10
2023-04-19T21:29:22.054Z,9.10
2023-04-19T21:31:49.002Z,9.00
2023-04-19T21:34:16.105Z,9.10
2023-04-19T21:36:43.068Z,9.00
2023-04-19T21:39:10.309Z,9.00
2023-04-19T21:41:37.480Z,9.00
2023-04-19T21:44:04.707Z,9.00
2023-04-19T21:46:32.323Z,8.90
2023-04-19T21:48:59.349Z,8.90
2023-04-19T21:51:26.390Z,8.90
2023-04-19T21:53:53.491Z,8.80
2023-04-19T21:56:20.517Z,8.80
2023-04-19T21:58:47.494Z,8.80
2023-04-19T22:01:14.584Z,8.80
2023-04-19T22:03:41.759Z,8.80
2023-04-19T22:06:14.573Z,8.70
2023-04-19T22:08:42.444Z,8.70
2023-04-19T22:11:09.456Z,8.70
2023-04-19T22:13:37.468Z,8.70
2023-04-19T22:16:04.505Z,8.70
2023-04-19T22:18:31.442Z,8.70
2023-04-19T22:20:58.426Z,8.70
2023-04-19T22:23:26.091Z,8.60
2023-04-19T22:25:53.111Z,8.60
2023-04-19T22:28:20.113Z,8.60
2023-04-19T22:30:47.121Z,8.60
2023-04-19T22:33:14.088Z,8.50
2023-04-19T22:35:41.762Z,8.50
2023-04-19T22:38:08.784Z,8.50
2023-04-19T22:40:35.782Z,8.50
2023-04-19T22:43:02.751Z,8.40
2023-04-19T22:45:29.675Z,8.40
2023-04-19T22:47:56.733Z,8.40
2023-04-19T22:50:23.869Z,8.40
2023-04-19T22:52:51.045Z,8.30
2023-04-19T22:55:17.953Z,8.40
2023-04-19T22:57:44.940Z,8.40
2023-04-19T23:00:12.152Z,8.30
2023-04-19T23:02:39.385Z,8.30
2023-04-19T23:05:06.582Z,8.30
2023-04-19T23:07:33.740Z,8.30
2023-04-19T23:10:01.261Z,8.20
2023-04-19T23:12:31.136Z,8.20
2023-04-19T23:14:58.437Z,8.20
2023-04-19T23:17:25.552Z,8.20
2023-04-19T23:19:52.522Z,8.20
2023-04-19T23:22:19.500Z,8.20
2023-04-19T23:24:46.516Z,8.10
2023-04-19T23:27:13.461Z,8.10
2023-04-19T23:29:40.481Z,8.10
2023-04-19T23:32:07.454Z,8.10
2023-04-19T23:34:34.511Z,8.10
2023-04-19T23:37:01.494Z,8.00
2023-04-19T23:39:29.353Z,8.10
2023-04-19T23:41:56.892Z,8.00
2023-04-19T23:44:27.228Z,8.00
2023-04-19T23:46:55.017Z,8.00
2023-04-19T23:49:22.483Z,8.00
2023-04-19T23:51:50.596Z,8.00
2023-04-19T23:54:21.217Z,8.00
2023-04-19T23:56:49.400Z,7.90
2023-04-19T23:59:16.719Z,7.90
